Terminal Aerodrome Forecast
Issued by NWS Boston, MA

Home | Current Version | Previous Version | Text Only | Print | Product List | Glossary On
Versions: 1 2 3 4 5 6 7 8 9 10 11 12 13 14 15 16 17 18 19 20
000
FTUS41 KBOX 052059 AAD
TAFORH
TAF AMD
KORH 052059Z 0521/0618 04010G18KT 1 1/2SM -RA BR OVC002
     FM060200 03010G18KT 3SM -DZ BR OVC003
     FM060600 03009KT P6SM BKN008
     FM061300 05010KT P6SM VCSH OVC015=

USA.gov is the U.S. government's official web portal to all federal, state and local government web resources and services.